createdAt,value
2023-01-05T00:01:36.536Z,101118.50
2023-01-05T00:04:06.933Z,101125.31
2023-01-05T00:06:35.735Z,101136.44
2023-01-05T00:09:04.234Z,101133.78
2023-01-05T00:11:49.554Z,101116.47
2023-01-05T00:14:36.838Z,101130.50
2023-01-05T00:17:23.088Z,101132.91
2023-01-05T00:20:10.023Z,101125.13
2023-01-05T00:22:44.962Z,101130.59
2023-01-05T00:25:15.179Z,101147.31
2023-01-05T00:27:44.716Z,101128.41
2023-01-05T00:30:15.964Z,101143.09
2023-01-05T00:32:44.411Z,101133.97
2023-01-05T00:35:15.648Z,101137.69
2023-01-05T00:37:44.354Z,101136.06
2023-01-05T00:40:14.562Z,101128.72
2023-01-05T00:42:42.674Z,101134.50
2023-01-05T00:45:12.884Z,101150.78
2023-01-05T00:47:41.021Z,101126.91
2023-01-05T00:50:10.242Z,101147.56
2023-01-05T00:52:39.562Z,101130.38
2023-01-05T00:55:08.520Z,101143.97
2023-01-05T00:57:37.244Z,101132.16
2023-01-05T01:00:06.463Z,101141.00
2023-01-05T01:02:38.180Z,101143.16
2023-01-05T01:05:08.831Z,101144.09
2023-01-05T01:07:36.736Z,101142.16
2023-01-05T01:10:09.288Z,101131.38
2023-01-05T01:12:37.224Z,101143.91
2023-01-05T01:15:06.710Z,101146.06
2023-01-05T01:17:35.172Z,101149.78
2023-01-05T01:20:03.313Z,101148.72
2023-01-05T01:22:33.454Z,101150.72
2023-01-05T01:25:01.348Z,101148.75
2023-01-05T01:27:32.499Z,101166.03
2023-01-05T01:30:02.491Z,101145.75
2023-01-05T01:32:30.709Z,101161.34
2023-01-05T01:34:58.524Z,101172.91
2023-01-05T01:37:26.430Z,101169.50
2023-01-05T01:39:56.559Z,101188.97
2023-01-05T01:42:24.836Z,101177.22
2023-01-05T01:44:57.980Z,101186.31
2023-01-05T01:47:33.579Z,101182.72
2023-01-05T01:50:05.226Z,101182.53
2023-01-05T01:52:34.270Z,101203.94
2023-01-05T01:55:05.758Z,101220.00
2023-01-05T01:57:34.777Z,101195.22
2023-01-05T02:00:08.880Z,101211.47
2023-01-05T02:02:49.138Z,101220.94
2023-01-05T02:05:25.465Z,101202.88
2023-01-05T02:07:53.298Z,101219.69
2023-01-05T02:10:30.928Z,101223.44
2023-01-05T02:13:11.465Z,101220.25
2023-01-05T02:15:47.859Z,101222.53
2023-01-05T02:18:34.382Z,101217.09
2023-01-05T02:21:22.595Z,101225.63
2023-01-05T02:24:35.189Z,101229.03
2023-01-05T02:27:37.028Z,101223.19
2023-01-05T02:30:27.564Z,101224.88
2023-01-05T02:33:03.057Z,101221.03
2023-01-05T02:35:39.586Z,101207.88
2023-01-05T02:38:15.602Z,101243.09
2023-01-05T02:40:48.629Z,101233.81
2023-01-05T02:43:20.545Z,101230.19
2023-01-05T02:45:48.868Z,101231.22
2023-01-05T02:48:18.884Z,101223.13
2023-01-05T02:50:51.717Z,101243.00
2023-01-05T02:53:23.455Z,101222.94
2023-01-05T02:55:57.618Z,101238.97
2023-01-05T02:58:35.415Z,101232.25
2023-01-05T03:01:07.177Z,101236.63
2023-01-05T03:03:42.152Z,101237.03
2023-01-05T03:06:18.160Z,101237.84
2023-01-05T03:08:52.402Z,101245.91
2023-01-05T03:11:39.755Z,101249.06
2023-01-05T03:14:14.076Z,101241.56
2023-01-05T03:16:45.107Z,101238.66
2023-01-05T03:19:35.929Z,101248.31
2023-01-05T03:22:24.347Z,101245.75
2023-01-05T03:25:10.830Z,101248.56
2023-01-05T03:28:00.306Z,101246.09
2023-01-05T03:30:53.457Z,101268.38
2023-01-05T03:33:48.624Z,101255.38
2023-01-05T03:36:22.604Z,101262.63
2023-01-05T03:38:54.873Z,101264.16
2023-01-05T03:41:26.991Z,101276.28
2023-01-05T03:43:58.303Z,101272.88
2023-01-05T03:46:26.302Z,101277.63
2023-01-05T03:48:54.893Z,101279.34
2023-01-05T03:51:24.713Z,101277.06
2023-01-05T03:53:52.576Z,101285.22
2023-01-05T03:56:20.846Z,101286.72
2023-01-05T03:58:48.724Z,101278.97
2023-01-05T04:01:17.037Z,101287.72
2023-01-05T04:03:45.216Z,101284.69
2023-01-05T04:06:13.451Z,101302.56
2023-01-05T04:08:42.727Z,101293.13
2023-01-05T04:11:13.312Z,101289.56
2023-01-05T04:13:41.391Z,101293.81
2023-01-05T04:16:09.702Z,101287.72
2023-01-05T04:18:41.799Z,101296.75
2023-01-05T04:21:11.116Z,101299.19
2023-01-05T04:23:40.356Z,101313.34
2023-01-05T04:26:10.648Z,101313.59
2023-01-05T04:28:39.640Z,101312.28
2023-01-05T04:31:10.230Z,101311.09
2023-01-05T04:33:39.537Z,101314.50
2023-01-05T04:36:09.315Z,101335.25
2023-01-05T04:38:38.455Z,101316.25
2023-01-05T04:41:07.459Z,101322.47
2023-01-05T04:43:37.694Z,101323.22
2023-01-05T04:46:06.043Z,101322.47
2023-01-05T04:48:34.859Z,101330.94
2023-01-05T04:51:05.197Z,101319.75
2023-01-05T04:53:36.435Z,101330.25
2023-01-05T04:56:06.788Z,101328.53
2023-01-05T04:58:41.789Z,101333.94
2023-01-05T05:01:10.115Z,101337.41
2023-01-05T05:03:39.929Z,101343.16
2023-01-05T05:06:11.314Z,101340.13
2023-01-05T05:08:39.241Z,101337.97
2023-01-05T05:11:07.983Z,101357.03
2023-01-05T05:13:38.960Z,101358.16
2023-01-05T05:16:09.334Z,101359.50
2023-01-05T05:18:37.442Z,101356.63
2023-01-05T05:21:06.968Z,101368.72
2023-01-05T05:23:37.459Z,101355.25
2023-01-05T05:26:06.399Z,101358.28
2023-01-05T05:28:35.389Z,101359.28
2023-01-05T05:31:03.741Z,101369.50
2023-01-05T05:33:33.180Z,101365.88
2023-01-05T05:36:01.073Z,101376.25
2023-01-05T05:38:29.158Z,101384.44
2023-01-05T05:40:57.033Z,101376.63
2023-01-05T05:43:24.919Z,101376.25
2023-01-05T05:45:52.944Z,101383.72
2023-01-05T05:48:21.080Z,101383.97
2023-01-05T05:50:50.619Z,101405.75
2023-01-05T05:53:18.533Z,101400.63
2023-01-05T05:55:49.680Z,101392.97
2023-01-05T05:58:17.860Z,101406.88
2023-01-05T06:00:45.933Z,101418.03
2023-01-05T06:03:14.340Z,101415.13
2023-01-05T06:05:42.678Z,101415.81
2023-01-05T06:08:12.543Z,101415.66
2023-01-05T06:10:40.543Z,101421.28
2023-01-05T06:13:08.780Z,101450.94
2023-01-05T06:15:36.689Z,101439.16
2023-01-05T06:18:05.038Z,101442.78
2023-01-05T06:20:33.467Z,101441.50
2023-01-05T06:23:01.277Z,101453.94
2023-01-05T06:25:30.638Z,101439.78
2023-01-05T06:27:58.538Z,101458.38
2023-01-05T06:30:27.000Z,101449.47
2023-01-05T06:32:54.998Z,101455.41
2023-01-05T06:35:23.190Z,101467.00
2023-01-05T06:37:51.406Z,101463.16
2023-01-05T06:40:19.645Z,101470.63
2023-01-05T06:42:48.899Z,101477.31
2023-01-05T06:45:17.691Z,101473.03
2023-01-05T06:47:45.873Z,101474.31
2023-01-05T06:50:14.015Z,101468.16
2023-01-05T06:52:42.124Z,101475.16
2023-01-05T06:55:12.300Z,101482.59
2023-01-05T06:57:40.380Z,101473.28
2023-01-05T07:00:12.911Z,101476.47
2023-01-05T07:02:40.979Z,101479.88
2023-01-05T07:05:10.265Z,101473.88
2023-01-05T07:07:38.914Z,101489.59
2023-01-05T07:10:08.181Z,101490.38
2023-01-05T07:12:36.444Z,101508.97
2023-01-05T07:15:06.221Z,101484.63
2023-01-05T07:17:36.711Z,101495.50
2023-01-05T07:20:05.576Z,101500.41
2023-01-05T07:22:33.743Z,101502.97
2023-01-05T07:25:01.685Z,101516.44
2023-01-05T07:27:29.695Z,101512.28
2023-01-05T07:29:57.630Z,101511.56
2023-01-05T07:32:25.814Z,101509.84
2023-01-05T07:34:56.100Z,101512.53
2023-01-05T07:37:25.576Z,101515.81
2023-01-05T07:39:53.561Z,101514.50
2023-01-05T07:42:21.513Z,101531.47
2023-01-05T07:44:51.861Z,101528.16
2023-01-05T07:47:20.004Z,101527.56
2023-01-05T07:49:48.157Z,101538.44
2023-01-05T07:52:17.936Z,101539.31
2023-01-05T07:54:46.285Z,101552.22
2023-01-05T07:57:14.759Z,101554.94
2023-01-05T07:59:42.740Z,101561.13
2023-01-05T08:02:11.526Z,101568.13
2023-01-05T08:04:39.898Z,101570.28
2023-01-05T08:07:11.579Z,101575.72
2023-01-05T08:09:58.473Z,101572.56
2023-01-05T08:12:26.585Z,101578.28
2023-01-05T08:14:54.412Z,101585.16
2023-01-05T08:17:22.396Z,101577.56
2023-01-05T08:19:50.359Z,101579.72
2023-01-05T08:22:18.255Z,101577.88
2023-01-05T08:24:47.518Z,101583.31
2023-01-05T08:27:15.452Z,101607.03
2023-01-05T08:29:43.367Z,101610.94
2023-01-05T08:32:11.253Z,101603.91
2023-01-05T08:34:39.503Z,101604.50
2023-01-05T08:37:07.476Z,101621.41
2023-01-05T08:39:36.471Z,101625.13
2023-01-05T08:42:05.973Z,101629.72
2023-01-05T08:44:34.019Z,101635.16
2023-01-05T08:47:01.883Z,101635.28
2023-01-05T08:49:29.979Z,101640.28
2023-01-05T08:51:57.889Z,101649.47
2023-01-05T08:54:26.213Z,101651.63
2023-01-05T08:56:54.241Z,101653.03
2023-01-05T08:59:23.522Z,101668.38
2023-01-05T09:01:51.644Z,101669.84
2023-01-05T09:04:19.980Z,101680.84
2023-01-05T09:06:48.019Z,101680.72
2023-01-05T09:09:15.892Z,101681.13
2023-01-05T09:11:44.348Z,101681.28
2023-01-05T09:14:15.514Z,101689.72
2023-01-05T09:19:33.150Z,101699.91
2023-01-05T09:22:01.232Z,101700.31
2023-01-05T09:24:29.207Z,101704.78
2023-01-05T09:26:57.762Z,101703.50
2023-01-05T09:29:25.726Z,101714.97
2023-01-05T09:31:55.208Z,101711.25
2023-01-05T09:34:23.763Z,101712.38
2023-01-05T09:36:51.749Z,101723.41
2023-01-05T09:39:19.795Z,101722.66
2023-01-05T09:41:50.616Z,101723.25
2023-01-05T09:44:29.520Z,101731.00
2023-01-05T09:47:03.674Z,101743.28
2023-01-05T09:49:33.495Z,101747.63
2023-01-05T09:52:03.460Z,101742.88
2023-01-05T09:54:34.850Z,101744.34
2023-01-05T09:57:09.907Z,101741.63
2023-01-05T09:59:42.213Z,101748.06
2023-01-05T10:02:19.895Z,101759.81
2023-01-05T10:04:48.864Z,101762.22
2023-01-05T10:07:26.761Z,101772.44
2023-01-05T10:09:58.402Z,101770.13
2023-01-05T10:12:49.951Z,101766.81
2023-01-05T10:15:21.692Z,101765.53
2023-01-05T10:17:51.280Z,101771.09
2023-01-05T10:20:26.741Z,101757.88
2023-01-05T10:23:06.562Z,101769.63
2023-01-05T10:25:42.601Z,101770.50
2023-01-05T10:28:27.898Z,101768.66
2023-01-05T10:30:59.877Z,101776.44
2023-01-05T10:33:51.991Z,101770.41
2023-01-05T10:37:07.763Z,101777.88
2023-01-05T10:40:03.366Z,101792.00
2023-01-05T10:42:42.091Z,101785.25
2023-01-05T10:45:12.806Z,101791.31
2023-01-05T10:47:41.901Z,101784.72
2023-01-05T10:50:35.080Z,101788.78
2023-01-05T10:53:10.449Z,101794.22
2023-01-05T10:55:46.496Z,101786.16
2023-01-05T10:58:25.525Z,101790.78
2023-01-05T11:00:58.098Z,101792.94
2023-01-05T11:04:14.819Z,101784.78
2023-01-05T11:06:28.268Z,101783.22
2023-01-05T11:08:56.965Z,101788.50
2023-01-05T11:11:26.805Z,101792.38
2023-01-05T11:13:57.238Z,101792.53
2023-01-05T11:16:28.912Z,101784.97
2023-01-05T11:18:59.904Z,101783.09
2023-01-05T11:21:43.456Z,101788.41
2023-01-05T11:24:28.878Z,101785.34
2023-01-05T11:26:59.629Z,101792.53
2023-01-05T11:29:27.660Z,101791.22
2023-01-05T11:31:59.832Z,101782.63
2023-01-05T11:34:38.084Z,101793.75
2023-01-05T11:37:14.756Z,101791.22
2023-01-05T11:39:50.026Z,101790.34
2023-01-05T11:42:25.334Z,101796.06
2023-01-05T11:44:56.081Z,101802.28
2023-01-05T11:47:29.545Z,101801.41
2023-01-05T11:50:08.478Z,101796.50
2023-01-05T11:52:40.374Z,101805.91
2023-01-05T11:55:31.070Z,101807.81
2023-01-05T11:58:13.651Z,101802.22
2023-01-05T12:01:04.914Z,101800.53
2023-01-05T12:03:55.411Z,101811.28
2023-01-05T12:06:38.176Z,101810.72
2023-01-05T12:09:17.263Z,101806.56
2023-01-05T12:11:51.156Z,101807.84
2023-01-05T12:14:33.927Z,101802.59
2023-01-05T12:17:07.937Z,101803.19
2023-01-05T12:20:04.175Z,101796.88
2023-01-05T12:23:13.947Z,101797.16
2023-01-05T12:25:56.149Z,101781.06
2023-01-05T12:29:34.385Z,101797.03
2023-01-05T12:34:00.352Z,101800.31
2023-01-05T12:35:18.156Z,101806.88
2023-01-05T12:38:02.122Z,101800.44
2023-01-05T12:40:45.587Z,101799.16
2023-01-05T12:43:24.164Z,101816.09
2023-01-05T12:46:14.588Z,101812.22
2023-01-05T12:48:48.219Z,101809.22
2023-01-05T12:51:19.586Z,101812.91
2023-01-05T12:53:56.587Z,101815.91
2023-01-05T12:56:29.533Z,101816.34
2023-01-05T12:59:12.424Z,101823.41
2023-01-05T13:01:46.714Z,101832.88
2023-01-05T13:04:38.882Z,101831.13
2023-01-05T13:07:16.509Z,101836.59
2023-01-05T13:09:46.830Z,101829.41
2023-01-05T13:12:15.156Z,101835.88
2023-01-05T13:14:52.714Z,101833.84
2023-01-05T13:17:26.605Z,101830.00
2023-01-05T13:20:04.070Z,101838.03
2023-01-05T13:22:37.099Z,101830.28
2023-01-05T13:25:17.491Z,101820.50
2023-01-05T13:27:45.459Z,101827.84
2023-01-05T13:30:23.856Z,101833.72
2023-01-05T13:33:15.998Z,101834.59
2023-01-05T13:35:57.449Z,101826.13
2023-01-05T13:38:55.333Z,101840.44
2023-01-05T13:41:40.748Z,101824.09
2023-01-05T13:44:35.005Z,101835.59
2023-01-05T13:47:45.173Z,101843.34
2023-01-05T13:50:37.146Z,101838.88
2023-01-05T13:53:10.442Z,101842.19
2023-01-05T13:55:46.516Z,101840.88
2023-01-05T13:58:41.700Z,101835.88
2023-01-05T14:01:14.300Z,101847.03
2023-01-05T14:03:50.576Z,101833.97
2023-01-05T14:06:23.303Z,101833.56
2023-01-05T14:08:57.216Z,101840.00
2023-01-05T14:11:27.701Z,101837.56
2023-01-05T14:13:58.386Z,101838.72
2023-01-05T14:16:55.626Z,101840.44
2023-01-05T14:19:52.484Z,101839.59
2023-01-05T14:22:37.022Z,101838.72
2023-01-05T14:25:59.420Z,101844.34
2023-01-05T14:28:46.133Z,101845.34
2023-01-05T14:31:52.982Z,101838.88
2023-01-05T14:34:23.203Z,101845.47
2023-01-05T14:37:04.341Z,101834.16
2023-01-05T14:39:39.848Z,101842.06
2023-01-05T14:42:17.389Z,101836.16
2023-01-05T14:44:50.758Z,101848.50
2023-01-05T14:47:33.351Z,101846.19
2023-01-05T14:50:03.951Z,101839.75
2023-01-05T14:52:55.763Z,101852.09
2023-01-05T14:55:38.465Z,101856.97
2023-01-05T14:58:12.134Z,101855.69
2023-01-05T15:00:49.601Z,101854.94
2023-01-05T15:03:35.644Z,101862.41
2023-01-05T15:06:10.166Z,101865.44
2023-01-05T15:09:05.352Z,101856.53
2023-01-05T15:12:00.012Z,101857.97
2023-01-05T15:14:41.015Z,101857.66
2023-01-05T15:17:42.197Z,101858.25
2023-01-05T15:20:39.868Z,101857.09
2023-01-05T15:23:24.678Z,101861.69
2023-01-05T15:26:21.461Z,101856.41
2023-01-05T15:29:11.019Z,101857.06
2023-01-05T15:31:44.665Z,101853.22
2023-01-05T15:34:22.218Z,101852.22
2023-01-05T15:36:55.928Z,101855.69
2023-01-05T15:39:30.331Z,101848.34
2023-01-05T15:42:06.894Z,101846.19
2023-01-05T15:44:39.195Z,101853.22
2023-01-05T15:47:10.819Z,101846.94
2023-01-05T15:49:39.972Z,101854.38
2023-01-05T15:52:20.297Z,101857.69
2023-01-05T15:54:59.415Z,101856.97
2023-01-05T15:57:29.696Z,101860.69
2023-01-05T15:59:58.119Z,101859.53
2023-01-05T16:02:27.916Z,101857.25
2023-01-05T16:05:12.639Z,101864.41
2023-01-05T16:07:45.917Z,101856.81
2023-01-05T16:10:19.909Z,101857.38
2023-01-05T16:12:52.846Z,101862.25
2023-01-05T16:15:24.163Z,101856.19
2023-01-05T16:17:56.552Z,101860.94
2023-01-05T16:20:27.186Z,101866.81
2023-01-05T16:23:04.671Z,101853.50
2023-01-05T16:25:41.009Z,101852.81
2023-01-05T16:28:17.417Z,101859.25
2023-01-05T16:30:47.418Z,101848.22
2023-01-05T16:33:34.727Z,101856.53
2023-01-05T16:36:13.329Z,101853.66
2023-01-05T16:38:42.580Z,101852.81
2023-01-05T16:41:13.940Z,101848.47
2023-01-05T16:43:46.805Z,101840.47
2023-01-05T16:46:36.045Z,101843.31
2023-01-05T16:49:33.654Z,101844.47
2023-01-05T16:52:02.815Z,101841.41
2023-01-05T16:54:39.258Z,101835.00
2023-01-05T16:57:35.837Z,101839.47
2023-01-05T17:00:27.770Z,101837.25
2023-01-05T17:02:57.027Z,101827.63
2023-01-05T17:05:27.698Z,101825.75
2023-01-05T17:08:00.563Z,101837.53
2023-01-05T17:10:29.231Z,101828.78
2023-01-05T17:13:02.447Z,101836.34
2023-01-05T17:15:34.969Z,101838.38
2023-01-05T17:18:24.914Z,101837.81
2023-01-05T17:20:55.767Z,101833.81
2023-01-05T17:23:26.588Z,101823.78
2023-01-05T17:25:56.658Z,101828.38
2023-01-05T17:28:24.972Z,101822.50
2023-01-05T17:30:54.943Z,101816.31
2023-01-05T17:33:23.319Z,101808.13
2023-01-05T17:35:52.255Z,101803.09
2023-01-05T17:38:20.420Z,101808.13
2023-01-05T17:40:49.055Z,101804.25
2023-01-05T17:43:18.492Z,101803.09
2023-01-05T17:45:46.904Z,101802.41
2023-01-05T17:48:16.883Z,101798.69
2023-01-05T17:50:45.740Z,101793.63
2023-01-05T17:53:13.867Z,101798.22
2023-01-05T17:55:43.238Z,101799.50
2023-01-05T17:58:14.219Z,101795.50
2023-01-05T18:03:22.475Z,101795.38
2023-01-05T18:05:53.405Z,101794.06
2023-01-05T18:08:22.632Z,101796.09
2023-01-05T18:10:50.996Z,101791.50
2023-01-05T18:13:21.518Z,101788.09
2023-01-05T18:15:53.038Z,101782.34
2023-01-05T18:18:23.168Z,101787.22
2023-01-05T18:20:51.927Z,101784.50
2023-01-05T18:23:20.931Z,101776.31
2023-01-05T18:25:49.117Z,101780.59
2023-01-05T18:28:18.104Z,101777.31
2023-01-05T18:30:46.586Z,101781.78
2023-01-05T18:33:14.739Z,101772.72
2023-01-05T18:35:44.687Z,101772.44
2023-01-05T18:38:12.799Z,101764.25
2023-01-05T18:40:41.404Z,101770.00
2023-01-05T18:43:09.602Z,101762.53
2023-01-05T18:45:39.500Z,101760.69
2023-01-05T18:48:08.984Z,101748.63
2023-01-05T18:50:41.237Z,101749.09
2023-01-05T18:53:10.706Z,101753.78
2023-01-05T18:55:41.828Z,101753.50
2023-01-05T18:58:10.236Z,101754.91
2023-01-05T19:00:40.436Z,101747.03
2023-01-05T19:03:09.976Z,101748.88
2023-01-05T19:05:41.202Z,101748.72
2023-01-05T19:08:12.295Z,101750.34
2023-01-05T19:10:40.845Z,101746.31
2023-01-05T19:13:09.504Z,101742.00
2023-01-05T19:15:39.260Z,101735.13
2023-01-05T19:18:07.516Z,101734.03
2023-01-05T19:20:36.020Z,101731.00
2023-01-05T19:23:04.549Z,101735.19
2023-01-05T19:25:34.565Z,101739.28
2023-01-05T19:28:02.948Z,101727.56
2023-01-05T19:30:31.673Z,101725.97
2023-01-05T19:33:01.080Z,101721.69
2023-01-05T19:35:31.283Z,101722.81
2023-01-05T19:38:00.614Z,101715.78
2023-01-05T19:40:28.882Z,101717.34
2023-01-05T19:42:58.297Z,101719.03
2023-01-05T19:45:26.375Z,101710.13
2023-01-05T19:47:54.717Z,101708.56
2023-01-05T19:50:24.748Z,101703.72
2023-01-05T19:52:53.656Z,101708.00
2023-01-05T19:55:21.607Z,101701.28
2023-01-05T19:57:49.578Z,101704.78
2023-01-05T20:00:20.292Z,101699.16
2023-01-05T20:02:48.713Z,101692.31
2023-01-05T20:05:17.479Z,101696.59
2023-01-05T20:07:45.415Z,101698.47
2023-01-05T20:10:14.628Z,101692.31
2023-01-05T20:12:43.002Z,101691.16
2023-01-05T20:15:13.151Z,101690.59
2023-01-05T20:17:45.402Z,101678.38
2023-01-05T20:20:14.201Z,101683.09
2023-01-05T20:22:42.280Z,101684.25
2023-01-05T20:25:10.937Z,101680.25
2023-01-05T20:27:39.765Z,101673.66
2023-01-05T20:30:08.937Z,101672.69
2023-01-05T20:32:36.987Z,101669.22
2023-01-05T20:35:07.840Z,101662.78
2023-01-05T20:37:35.917Z,101657.94
2023-01-05T20:40:05.779Z,101662.50
2023-01-05T20:42:34.724Z,101667.53
2023-01-05T20:45:04.212Z,101665.09
2023-01-05T20:47:43.297Z,101656.34
2023-01-05T20:50:16.764Z,101664.94
2023-01-05T20:52:44.644Z,101658.38
2023-01-05T20:55:12.782Z,101649.75
2023-01-05T20:57:41.204Z,101664.66
2023-01-05T21:00:10.988Z,101657.50
2023-01-05T21:02:39.350Z,101652.06
2023-01-05T21:05:09.733Z,101648.19
2023-01-05T21:07:39.100Z,101651.31
2023-01-05T21:10:08.394Z,101658.63
2023-01-05T21:12:36.310Z,101663.53
2023-01-05T21:15:04.794Z,101648.63
2023-01-05T21:17:34.009Z,101646.59
2023-01-05T21:20:03.076Z,101645.59
2023-01-05T21:22:31.194Z,101662.03
2023-01-05T21:25:00.652Z,101649.88
2023-01-05T21:27:28.503Z,101652.94
2023-01-05T21:29:56.367Z,101648.03
2023-01-05T21:32:24.543Z,101644.47
2023-01-05T21:34:52.693Z,101637.16
2023-01-05T21:37:20.782Z,101644.88
2023-01-05T21:39:48.710Z,101637.56
2023-01-05T21:42:35.433Z,101638.44
2023-01-05T21:45:03.874Z,101637.44
2023-01-05T21:47:31.816Z,101640.72
2023-01-05T21:49:59.755Z,101645.59
2023-01-05T21:52:44.511Z,101642.16
2023-01-05T21:55:30.134Z,101638.28
2023-01-05T21:57:59.840Z,101636.28
2023-01-05T22:00:28.161Z,101627.69
2023-01-05T22:02:56.303Z,101633.81
2023-01-05T22:05:24.452Z,101626.38
2023-01-05T22:07:52.446Z,101619.47
2023-01-05T22:10:20.403Z,101616.63
2023-01-05T22:12:49.792Z,101611.75
2023-01-05T22:15:19.548Z,101609.31
2023-01-05T22:17:47.615Z,101618.88
2023-01-05T22:20:16.183Z,101610.72
2023-01-05T22:22:44.015Z,101600.81
2023-01-05T22:25:11.990Z,101598.25
2023-01-05T22:27:40.112Z,101590.41
2023-01-05T22:30:09.784Z,101588.94
2023-01-05T22:32:39.627Z,101586.94
2023-01-05T22:35:08.619Z,101586.25
2023-01-05T22:37:36.601Z,101574.03
2023-01-05T22:40:05.570Z,101575.72
2023-01-05T22:42:33.576Z,101584.50
2023-01-05T22:45:01.555Z,101576.75
2023-01-05T22:47:29.642Z,101578.91
2023-01-05T22:49:59.017Z,101571.88
2023-01-05T22:52:26.969Z,101576.19
2023-01-05T22:54:54.851Z,101573.31
2023-01-05T22:57:22.769Z,101571.72
2023-01-05T22:59:50.681Z,101576.59
2023-01-05T23:02:18.598Z,101560.41
2023-01-05T23:04:46.492Z,101558.00
2023-01-05T23:07:20.575Z,101565.56
2023-01-05T23:09:48.554Z,101559.84
2023-01-05T23:12:16.538Z,101559.69
2023-01-05T23:14:44.384Z,101554.06
2023-01-05T23:17:12.418Z,101549.59
2023-01-05T23:19:40.534Z,101551.50
2023-01-05T23:22:10.792Z,101543.22
2023-01-05T23:24:40.784Z,101538.38
2023-01-05T23:27:08.734Z,101539.19
2023-01-05T23:29:36.805Z,101543.38
2023-01-05T23:32:05.798Z,101538.47
2023-01-05T23:34:33.643Z,101532.13
2023-01-05T23:37:01.499Z,101528.72
2023-01-05T23:39:29.585Z,101530.19
2023-01-05T23:41:58.887Z,101530.75
2023-01-05T23:44:26.707Z,101523.97
2023-01-05T23:46:54.696Z,101523.44
2023-01-05T23:49:22.559Z,101505.75
2023-01-05T23:51:50.448Z,101509.53
2023-01-05T23:54:18.417Z,101505.63
2023-01-05T23:56:46.389Z,101509.50
2023-01-05T23:59:15.671Z,101494.31
